createdAt,value
2018-05-15T00:00:05.864Z,17.69
2018-05-15T00:01:05.472Z,17.69
2018-05-15T00:02:06.815Z,17.56
2018-05-15T00:03:05.703Z,17.50
2018-05-15T00:04:05.971Z,17.44
2018-05-15T00:05:05.693Z,17.44
2018-05-15T00:06:16.912Z,17.31
2018-05-15T00:07:05.876Z,17.25
2018-05-15T00:08:06.262Z,17.31
2018-05-15T00:09:06.267Z,17.19
2018-05-15T00:10:05.981Z,17.12
2018-05-15T00:11:06.582Z,17.06
2018-05-15T00:12:16.570Z,17.12
2018-05-15T00:13:06.137Z,17.12
2018-05-15T00:14:05.772Z,17.06
2018-05-15T00:15:06.263Z,17.00
2018-05-15T00:16:06.584Z,16.94
2018-05-15T00:17:06.231Z,17.00
2018-05-15T00:18:05.741Z,16.88
2018-05-15T00:19:05.583Z,16.88
2018-05-15T00:20:05.606Z,16.88
2018-05-15T00:21:06.010Z,17.06
2018-05-15T00:22:05.978Z,17.12
2018-05-15T00:23:05.892Z,17.06
2018-05-15T00:24:05.455Z,17.06
2018-05-15T00:25:05.551Z,17.00
2018-05-15T00:26:05.944Z,17.19
2018-05-15T00:27:05.984Z,17.38
2018-05-15T00:28:07.225Z,17.38
2018-05-15T00:29:06.257Z,17.44
2018-05-15T00:30:06.174Z,17.31
2018-05-15T00:31:06.830Z,17.31
2018-05-15T00:32:06.578Z,17.12
2018-05-15T00:33:06.267Z,17.06
2018-05-15T00:34:06.428Z,17.00
2018-05-15T00:35:06.414Z,16.94
2018-05-15T00:36:06.186Z,16.88
2018-05-15T00:37:11.260Z,16.75
2018-05-15T00:38:06.033Z,16.88
2018-05-15T00:39:05.968Z,16.88
2018-05-15T00:40:05.778Z,16.88
2018-05-15T00:41:06.501Z,16.69
2018-05-15T00:42:06.179Z,16.62
2018-05-15T00:43:06.110Z,16.94
2018-05-15T00:44:06.178Z,16.88
2018-05-15T00:45:06.341Z,16.81
2018-05-15T00:46:06.336Z,16.75
2018-05-15T00:47:05.649Z,16.69
2018-05-15T00:48:06.657Z,16.56
2018-05-15T00:49:05.921Z,16.62
2018-05-15T00:50:06.070Z,16.50
2018-05-15T00:51:06.631Z,16.56
2018-05-15T00:52:05.686Z,16.62
2018-05-15T00:53:05.783Z,16.62
2018-05-15T00:54:05.901Z,16.69
2018-05-15T00:55:05.708Z,16.62
2018-05-15T00:56:05.709Z,16.62
2018-05-15T00:57:06.804Z,16.56
2018-05-15T00:58:05.745Z,16.50
2018-05-15T00:59:06.117Z,16.44
2018-05-15T01:00:06.071Z,16.50
2018-05-15T01:01:07.277Z,16.50
2018-05-15T01:02:05.771Z,16.44
2018-05-15T01:03:06.447Z,16.31
2018-05-15T01:04:06.496Z,16.38
2018-05-15T01:05:06.532Z,16.44
2018-05-15T01:06:06.022Z,16.56
2018-05-15T01:07:06.186Z,16.50
2018-05-15T01:08:06.580Z,16.56
2018-05-15T01:09:06.591Z,16.56
2018-05-15T01:10:06.251Z,16.62
2018-05-15T01:11:06.333Z,16.62
2018-05-15T01:12:06.379Z,16.44
2018-05-15T01:13:07.148Z,16.25
2018-05-15T01:14:06.794Z,16.19
2018-05-15T01:15:05.718Z,16.19
2018-05-15T01:16:05.826Z,16.19
2018-05-15T01:17:06.393Z,16.12
2018-05-15T01:18:06.338Z,16.19
2018-05-15T01:19:06.796Z,16.25
2018-05-15T01:20:06.406Z,16.25
2018-05-15T01:21:06.991Z,16.25
2018-05-15T01:22:05.936Z,16.25
2018-05-15T01:23:06.227Z,16.19
2018-05-15T01:24:06.496Z,16.38
2018-05-15T01:25:06.310Z,16.44
2018-05-15T01:26:06.557Z,16.69
2018-05-15T01:27:06.479Z,16.81
2018-05-15T01:28:06.342Z,16.94
2018-05-15T01:29:06.331Z,17.06
2018-05-15T01:30:06.255Z,17.06
2018-05-15T01:31:06.188Z,17.00
2018-05-15T01:32:05.707Z,16.94
2018-05-15T01:33:06.309Z,16.94
2018-05-15T01:34:06.603Z,16.88
2018-05-15T01:35:06.448Z,16.81
2018-05-15T01:36:06.862Z,16.75
2018-05-15T01:37:06.013Z,16.62
2018-05-15T01:38:07.400Z,16.56
2018-05-15T01:39:06.318Z,16.50
2018-05-15T01:40:07.095Z,16.31
2018-05-15T01:41:06.561Z,16.19
2018-05-15T01:42:06.658Z,16.00
2018-05-15T01:43:05.715Z,15.88
2018-05-15T01:44:06.107Z,15.94
2018-05-15T01:45:06.127Z,16.00
2018-05-15T01:46:10.720Z,15.94
2018-05-15T01:47:06.647Z,15.94
2018-05-15T01:48:06.118Z,15.94
2018-05-15T01:49:05.641Z,15.81
2018-05-15T01:50:05.616Z,15.69
2018-05-15T01:51:06.336Z,15.75
2018-05-15T01:52:06.239Z,15.75
2018-05-15T01:53:05.718Z,15.69
2018-05-15T01:54:06.499Z,15.69
2018-05-15T01:55:06.079Z,15.69
2018-05-15T01:56:05.934Z,15.69
2018-05-15T01:57:05.546Z,15.62
2018-05-15T01:58:06.419Z,15.69
2018-05-15T01:59:06.334Z,15.69
2018-05-15T02:00:05.942Z,15.75
2018-05-15T02:01:05.944Z,15.75
2018-05-15T02:02:05.955Z,15.75
2018-05-15T02:03:06.264Z,15.75
2018-05-15T02:04:06.158Z,15.75
2018-05-15T02:05:06.278Z,15.81
2018-05-15T02:06:06.095Z,15.75
2018-05-15T02:07:06.107Z,15.81
2018-05-15T02:08:06.192Z,15.75
2018-05-15T02:09:06.432Z,15.75
2018-05-15T02:10:06.431Z,15.75
2018-05-15T02:11:05.958Z,15.69
2018-05-15T02:12:06.416Z,15.56
2018-05-15T02:13:06.098Z,15.56
2018-05-15T02:14:06.280Z,15.56
2018-05-15T02:15:06.026Z,15.94
2018-05-15T02:16:05.633Z,16.00
2018-05-15T02:17:06.111Z,16.19
2018-05-15T02:18:05.726Z,16.00
2018-05-15T02:19:05.859Z,16.00
2018-05-15T02:20:11.429Z,16.00
2018-05-15T02:21:06.200Z,16.00
2018-05-15T02:22:06.095Z,16.00
2018-05-15T02:23:06.298Z,16.12
2018-05-15T02:24:06.761Z,16.44
2018-05-15T02:25:06.293Z,16.50
2018-05-15T02:26:06.592Z,16.38
2018-05-15T02:27:06.498Z,16.31
2018-05-15T02:28:11.277Z,16.31
2018-05-15T02:29:06.498Z,16.38
2018-05-15T02:30:05.875Z,16.25
2018-05-15T02:31:05.943Z,16.25
2018-05-15T02:32:06.083Z,16.50
2018-05-15T02:33:06.343Z,16.62
2018-05-15T02:34:06.251Z,16.50
2018-05-15T02:35:06.593Z,16.38
2018-05-15T02:36:06.595Z,16.19
2018-05-15T02:37:06.503Z,16.06
2018-05-15T02:38:05.533Z,15.88
2018-05-15T02:39:06.702Z,15.69
2018-05-15T02:40:11.581Z,15.56
2018-05-15T02:41:10.697Z,15.50
2018-05-15T02:42:06.036Z,15.44
2018-05-15T02:43:06.490Z,15.44
2018-05-15T02:44:06.183Z,15.75
2018-05-15T02:45:11.099Z,15.81
2018-05-15T02:46:05.547Z,15.81
2018-05-15T02:47:06.755Z,16.06
2018-05-15T02:48:05.798Z,16.06
2018-05-15T02:49:06.979Z,15.94
2018-05-15T02:50:05.947Z,15.94
2018-05-15T02:51:06.430Z,15.88
2018-05-15T02:52:06.332Z,15.88
2018-05-15T02:53:06.441Z,15.81
2018-05-15T02:54:05.703Z,15.75
2018-05-15T02:55:06.020Z,15.69
2018-05-15T02:56:05.540Z,15.81
2018-05-15T02:57:06.096Z,15.75
2018-05-15T02:58:06.181Z,15.81
2018-05-15T02:59:06.211Z,15.88
2018-05-15T03:00:06.270Z,15.88
2018-05-15T03:01:06.020Z,15.50
2018-05-15T03:02:06.325Z,15.69
2018-05-15T03:03:06.333Z,16.12
2018-05-15T03:04:06.780Z,16.25
2018-05-15T03:05:05.951Z,16.38
2018-05-15T03:06:06.550Z,16.44
2018-05-15T03:07:06.872Z,16.31
2018-05-15T03:08:05.930Z,16.25
2018-05-15T03:09:06.112Z,16.44
2018-05-15T03:10:05.960Z,16.50
2018-05-15T03:11:10.956Z,16.25
2018-05-15T03:12:06.203Z,16.31
2018-05-15T03:13:06.270Z,16.31
2018-05-15T03:14:06.807Z,16.69
2018-05-15T03:15:05.773Z,16.50
2018-05-15T03:16:06.589Z,16.50
2018-05-15T03:17:06.623Z,16.62
2018-05-15T03:18:05.687Z,16.38
2018-05-15T03:19:05.700Z,16.44
2018-05-15T03:20:07.454Z,16.44
2018-05-15T03:21:10.865Z,16.44
2018-05-15T03:22:06.529Z,16.44
2018-05-15T03:23:12.236Z,16.62
2018-05-15T03:24:06.144Z,16.62
2018-05-15T03:25:06.139Z,16.50
2018-05-15T03:26:06.410Z,16.50
2018-05-15T03:27:06.277Z,16.38
2018-05-15T03:28:06.166Z,16.44
2018-05-15T03:29:05.781Z,16.44
2018-05-15T03:30:10.961Z,16.75
2018-05-15T03:31:06.085Z,16.62
2018-05-15T03:32:05.919Z,16.50
2018-05-15T03:33:06.338Z,16.56
2018-05-15T03:34:06.421Z,16.62
2018-05-15T03:35:06.093Z,16.81
2018-05-15T03:36:07.302Z,16.88
2018-05-15T03:37:06.342Z,17.00
2018-05-15T03:38:06.106Z,17.19
2018-05-15T03:39:06.430Z,17.06
2018-05-15T03:40:06.172Z,16.75
2018-05-15T03:41:06.267Z,16.50
2018-05-15T03:42:06.335Z,16.31
2018-05-15T03:43:06.603Z,16.25
2018-05-15T03:44:05.642Z,16.12
2018-05-15T03:45:06.025Z,16.19
2018-05-15T03:46:05.851Z,16.31
2018-05-15T03:47:06.965Z,16.44
2018-05-15T03:48:11.339Z,16.38
2018-05-15T03:49:06.279Z,16.44
2018-05-15T03:50:06.383Z,16.56
2018-05-15T03:51:06.980Z,16.81
2018-05-15T03:52:06.228Z,16.88
2018-05-15T03:53:05.804Z,16.88
2018-05-15T03:54:06.019Z,16.62
2018-05-15T03:55:06.336Z,16.62
2018-05-15T03:56:10.785Z,16.38
2018-05-15T03:57:06.432Z,16.44
2018-05-15T03:58:06.255Z,16.75
2018-05-15T03:59:06.340Z,16.88
2018-05-15T04:00:06.092Z,16.88
2018-05-15T04:01:06.151Z,16.88
2018-05-15T04:02:05.701Z,17.00
2018-05-15T04:03:07.414Z,17.12
2018-05-15T04:04:06.107Z,17.12
2018-05-15T04:05:06.420Z,17.12
2018-05-15T04:06:05.542Z,17.25
2018-05-15T04:07:06.996Z,17.44
2018-05-15T04:08:05.614Z,17.44
2018-05-15T04:09:06.256Z,17.44
2018-05-15T04:10:06.426Z,17.50
2018-05-15T04:11:06.215Z,17.56
2018-05-15T04:12:06.392Z,17.75
2018-05-15T04:13:06.025Z,17.81
2018-05-15T04:14:05.876Z,18.06
2018-05-15T04:15:06.084Z,18.19
2018-05-15T04:16:06.496Z,18.38
2018-05-15T04:17:06.523Z,18.31
2018-05-15T04:18:05.825Z,18.31
2018-05-15T04:19:06.343Z,18.38
2018-05-15T04:20:06.081Z,18.50
2018-05-15T04:21:05.623Z,18.50
2018-05-15T04:22:06.020Z,18.62
2018-05-15T04:23:06.384Z,18.62
2018-05-15T04:24:05.950Z,18.69
2018-05-15T04:25:07.258Z,18.69
2018-05-15T04:26:07.199Z,18.75
2018-05-15T04:27:05.848Z,18.88
2018-05-15T04:28:07.283Z,18.81
2018-05-15T04:29:06.258Z,19.00
2018-05-15T04:30:05.860Z,19.12
2018-05-15T04:31:05.878Z,19.12
2018-05-15T04:32:06.112Z,19.19
2018-05-15T04:33:05.943Z,19.31
2018-05-15T04:34:06.585Z,19.38
2018-05-15T04:35:06.259Z,19.56
2018-05-15T04:36:06.045Z,19.69
2018-05-15T04:37:05.693Z,19.81
2018-05-15T04:38:06.339Z,19.75
2018-05-15T04:39:06.687Z,19.75
2018-05-15T04:40:06.579Z,19.69
2018-05-15T04:41:06.519Z,19.62
2018-05-15T04:42:06.409Z,19.62
2018-05-15T04:43:06.347Z,19.62
2018-05-15T04:44:06.219Z,19.69
2018-05-15T04:45:05.631Z,19.81
2018-05-15T04:46:05.878Z,19.88
2018-05-15T04:47:11.338Z,19.88
2018-05-15T04:48:05.855Z,19.88
2018-05-15T04:49:06.402Z,20.00
2018-05-15T04:50:06.192Z,20.50
2018-05-15T04:51:06.346Z,20.75
2018-05-15T04:52:06.176Z,20.81
2018-05-15T04:53:06.315Z,20.88
2018-05-15T04:54:05.779Z,20.81
2018-05-15T04:55:05.701Z,20.81
2018-05-15T04:56:05.856Z,20.81
2018-05-15T04:57:05.791Z,20.75
2018-05-15T04:58:05.630Z,21.06
2018-05-15T04:59:05.773Z,21.38
2018-05-15T05:00:06.184Z,21.69
2018-05-15T05:01:06.090Z,21.62
2018-05-15T05:02:06.449Z,21.62
2018-05-15T05:03:11.038Z,21.44
2018-05-15T05:04:11.220Z,21.75
2018-05-15T05:05:05.936Z,21.69
2018-05-15T05:06:06.077Z,21.44
2018-05-15T05:07:06.352Z,21.50
2018-05-15T05:08:06.026Z,21.25
2018-05-15T05:09:05.791Z,21.38
2018-05-15T05:10:06.438Z,21.50
2018-05-15T05:11:06.095Z,21.81
2018-05-15T05:12:11.023Z,21.69
2018-05-15T05:13:05.694Z,21.62
2018-05-15T05:14:05.844Z,21.62
2018-05-15T05:15:11.357Z,21.62
2018-05-15T05:16:06.111Z,21.56
2018-05-15T05:17:06.014Z,21.69
2018-05-15T05:18:06.184Z,22.06
2018-05-15T05:19:05.944Z,22.06
2018-05-15T05:20:05.934Z,22.38
2018-05-15T05:21:06.074Z,22.38
2018-05-15T05:22:06.511Z,22.31
2018-05-15T05:23:06.454Z,22.25
2018-05-15T05:24:06.195Z,22.38
2018-05-15T05:25:05.661Z,22.38
2018-05-15T05:26:06.573Z,22.56
2018-05-15T05:27:06.284Z,23.06
2018-05-15T05:28:06.105Z,23.69
2018-05-15T05:29:06.107Z,24.19
2018-05-15T05:30:06.192Z,24.50
2018-05-15T05:31:06.091Z,24.44
2018-05-15T05:32:11.188Z,24.50
2018-05-15T05:33:05.804Z,24.44
2018-05-15T05:34:06.498Z,24.31
2018-05-15T05:35:06.191Z,23.56
2018-05-15T05:36:10.624Z,24.62
2018-05-15T05:37:06.015Z,24.88
2018-05-15T05:38:06.223Z,24.88
2018-05-15T05:39:07.071Z,24.75
2018-05-15T05:40:06.588Z,24.81
2018-05-15T05:41:05.529Z,24.75
2018-05-15T05:42:05.722Z,24.56
2018-05-15T05:43:07.002Z,24.38
2018-05-15T05:44:06.098Z,24.38
2018-05-15T05:45:06.993Z,24.50
2018-05-15T05:46:05.873Z,24.19
2018-05-15T05:47:06.349Z,23.88
2018-05-15T05:48:06.030Z,24.38
2018-05-15T05:49:06.188Z,24.62
2018-05-15T05:50:05.721Z,24.75
2018-05-15T05:51:05.777Z,25.06
2018-05-15T05:52:06.375Z,25.25
2018-05-15T05:53:05.949Z,25.38
2018-05-15T05:54:05.634Z,25.38
2018-05-15T05:55:07.074Z,25.50
2018-05-15T05:56:06.192Z,25.81
2018-05-15T05:57:06.104Z,26.00
2018-05-15T05:58:06.007Z,25.62
2018-05-15T05:59:06.461Z,25.31
2018-05-15T06:00:06.083Z,25.38
2018-05-15T06:01:06.150Z,25.44
2018-05-15T06:02:06.101Z,25.62
2018-05-15T06:03:05.920Z,25.50
2018-05-15T06:04:05.784Z,25.38
2018-05-15T06:05:06.190Z,25.38
2018-05-15T06:06:06.413Z,25.56
2018-05-15T06:07:05.649Z,25.44
2018-05-15T06:08:06.678Z,25.56
2018-05-15T06:09:06.609Z,25.31
2018-05-15T06:10:06.174Z,25.12
2018-05-15T06:11:05.911Z,25.19
2018-05-15T06:12:05.900Z,24.94
2018-05-15T06:13:06.175Z,24.75
2018-05-15T06:14:05.836Z,24.75
2018-05-15T06:15:05.662Z,24.44
2018-05-15T06:16:06.047Z,24.25
2018-05-15T06:17:06.296Z,24.12
2018-05-15T06:18:06.327Z,24.00
2018-05-15T06:19:05.969Z,24.19
2018-05-15T06:20:06.390Z,24.06
2018-05-15T06:21:07.098Z,24.12
2018-05-15T06:22:05.784Z,24.00
2018-05-15T06:23:06.579Z,23.94
2018-05-15T06:24:06.283Z,23.94
2018-05-15T06:25:06.515Z,24.00
2018-05-15T06:26:11.293Z,24.06
2018-05-15T06:27:06.285Z,23.94
2018-05-15T06:28:05.951Z,24.12
2018-05-15T06:29:05.638Z,24.00
2018-05-15T06:30:05.892Z,23.88
2018-05-15T06:31:06.678Z,23.94
2018-05-15T06:32:06.515Z,24.19
2018-05-15T06:33:05.943Z,24.38
2018-05-15T06:34:05.561Z,24.44
2018-05-15T06:35:06.382Z,24.56
2018-05-15T06:36:05.987Z,24.50
2018-05-15T06:37:05.801Z,24.25
2018-05-15T06:38:11.365Z,24.19
2018-05-15T06:39:05.992Z,24.19
2018-05-15T06:40:06.591Z,24.06
2018-05-15T06:41:06.178Z,23.94
2018-05-15T06:42:06.346Z,24.06
2018-05-15T06:43:06.260Z,24.06
2018-05-15T06:44:06.443Z,24.06
2018-05-15T06:45:06.419Z,24.19
2018-05-15T06:46:06.294Z,23.94
2018-05-15T06:47:05.900Z,23.94
2018-05-15T06:48:11.421Z,24.12
2018-05-15T06:49:10.537Z,24.06
2018-05-15T06:50:05.824Z,23.94
2018-05-15T06:51:06.340Z,23.75
2018-05-15T06:52:05.665Z,23.62
2018-05-15T06:53:06.057Z,23.38
2018-05-15T06:54:06.433Z,23.31
2018-05-15T06:55:05.632Z,23.44
2018-05-15T06:56:05.731Z,23.62
2018-05-15T06:57:05.944Z,24.00
2018-05-15T06:58:05.709Z,24.12
2018-05-15T06:59:06.186Z,24.06
2018-05-15T07:00:05.872Z,23.81
2018-05-15T07:01:05.708Z,23.62
2018-05-15T07:02:05.934Z,23.50
2018-05-15T07:03:06.121Z,23.81
2018-05-15T07:04:11.183Z,23.62
2018-05-15T07:05:06.650Z,23.88
2018-05-15T07:06:06.718Z,24.00
2018-05-15T07:07:06.880Z,23.88
2018-05-15T07:08:06.509Z,23.81
2018-05-15T07:09:06.111Z,23.62
2018-05-15T07:10:06.435Z,23.50
2018-05-15T07:11:10.941Z,23.56
2018-05-15T07:12:05.532Z,23.62
2018-05-15T07:13:05.723Z,23.75
2018-05-15T07:14:06.401Z,23.88
2018-05-15T07:15:05.935Z,24.00
2018-05-15T07:16:11.430Z,24.12
2018-05-15T07:17:06.589Z,24.12
2018-05-15T07:18:06.339Z,23.94
2018-05-15T07:19:06.306Z,24.00
2018-05-15T07:20:06.365Z,24.00
2018-05-15T07:21:06.198Z,23.81
2018-05-15T07:22:06.131Z,23.69
2018-05-15T07:23:05.780Z,23.69
2018-05-15T07:24:06.329Z,23.69
2018-05-15T07:25:11.482Z,23.69
2018-05-15T07:26:06.679Z,23.69
2018-05-15T07:27:05.949Z,23.81
2018-05-15T07:28:05.654Z,23.88
2018-05-15T07:29:06.026Z,23.69
2018-05-15T07:30:06.109Z,23.56
2018-05-15T07:31:05.642Z,23.69
2018-05-15T07:32:06.100Z,24.00
2018-05-15T07:33:05.959Z,23.81
2018-05-15T07:34:05.818Z,23.50
2018-05-15T07:35:06.739Z,23.25
2018-05-15T07:36:05.953Z,23.25
2018-05-15T07:37:06.068Z,23.25
2018-05-15T07:38:05.948Z,23.25
2018-05-15T07:39:06.556Z,23.31
2018-05-15T07:40:06.490Z,23.50
2018-05-15T07:41:06.128Z,23.81
2018-05-15T07:42:06.740Z,23.69
2018-05-15T07:43:05.553Z,23.69
2018-05-15T07:44:06.106Z,23.75
2018-05-15T07:45:06.976Z,23.44
2018-05-15T07:46:06.181Z,23.44
2018-05-15T07:47:05.913Z,23.06
2018-05-15T07:48:11.030Z,22.81
2018-05-15T07:49:05.709Z,22.62
2018-05-15T07:50:05.709Z,22.50
2018-05-15T07:51:06.428Z,22.50
2018-05-15T07:52:05.694Z,22.50
2018-05-15T07:53:06.332Z,22.62
2018-05-15T07:54:06.874Z,22.81
2018-05-15T07:55:06.252Z,22.81
2018-05-15T07:56:06.029Z,22.62
2018-05-15T07:57:05.709Z,22.75
2018-05-15T07:58:06.371Z,22.69
2018-05-15T07:59:06.499Z,22.44
2018-05-15T08:00:06.178Z,22.38
2018-05-15T08:01:05.612Z,22.50
2018-05-15T08:02:05.972Z,22.50
2018-05-15T08:03:06.202Z,22.25
2018-05-15T08:04:06.354Z,22.25
2018-05-15T08:05:05.895Z,22.25
2018-05-15T08:06:05.535Z,22.31
2018-05-15T08:07:06.523Z,22.50
2018-05-15T08:08:05.477Z,22.44
2018-05-15T08:09:06.555Z,22.31
2018-05-15T08:10:11.341Z,22.19
2018-05-15T08:11:06.109Z,22.44
2018-05-15T08:12:06.118Z,22.38
2018-05-15T08:13:06.179Z,22.25
2018-05-15T08:14:06.114Z,22.25
2018-05-15T08:15:05.628Z,22.25
2018-05-15T08:16:05.760Z,22.31
2018-05-15T08:17:06.620Z,22.25
2018-05-15T08:18:11.142Z,22.31
2018-05-15T08:19:05.631Z,22.25
2018-05-15T08:20:06.504Z,22.31
2018-05-15T08:21:06.590Z,22.19
2018-05-15T08:22:05.997Z,22.19
2018-05-15T08:23:06.156Z,22.31
2018-05-15T08:24:06.178Z,22.44
2018-05-15T08:25:06.422Z,22.31
2018-05-15T08:26:06.433Z,22.31
2018-05-15T08:27:05.765Z,22.25
2018-05-15T08:28:05.952Z,22.12
2018-05-15T08:29:05.539Z,21.81
2018-05-15T08:30:06.797Z,21.88
2018-05-15T08:31:06.013Z,21.88
2018-05-15T08:32:05.705Z,21.88
2018-05-15T08:33:05.614Z,21.94
2018-05-15T08:34:05.716Z,21.88
2018-05-15T08:35:06.360Z,22.06
2018-05-15T08:36:06.228Z,22.12
2018-05-15T08:37:11.297Z,21.94
2018-05-15T08:38:06.026Z,21.75
2018-05-15T08:39:05.878Z,21.62
2018-05-15T08:40:06.027Z,21.75
2018-05-15T08:41:06.027Z,21.88
2018-05-15T08:42:05.776Z,21.81
2018-05-15T08:43:06.405Z,21.88
2018-05-15T08:44:06.210Z,21.81
2018-05-15T08:45:05.908Z,21.69
2018-05-15T08:46:05.799Z,21.75
2018-05-15T08:47:05.635Z,21.81
2018-05-15T08:48:05.991Z,21.81
2018-05-15T08:49:06.594Z,21.88
2018-05-15T08:50:06.496Z,22.12
2018-05-15T08:51:10.721Z,21.94
2018-05-15T08:52:06.660Z,22.06
2018-05-15T08:53:06.307Z,22.00
2018-05-15T08:54:06.290Z,22.00
2018-05-15T08:55:05.690Z,22.00
2018-05-15T08:56:05.942Z,22.94
2018-05-15T08:57:11.421Z,23.00
2018-05-15T08:58:06.611Z,23.00
2018-05-15T08:59:06.250Z,23.06
2018-05-15T09:00:06.118Z,23.19
2018-05-15T09:01:06.353Z,23.19
2018-05-15T09:02:06.368Z,23.19
2018-05-15T09:03:06.186Z,23.31
2018-05-15T09:04:06.520Z,23.44
2018-05-15T09:05:06.076Z,23.38
2018-05-15T09:06:11.354Z,23.31
2018-05-15T09:07:06.337Z,23.19
2018-05-15T09:08:06.260Z,22.88
2018-05-15T09:09:06.568Z,22.94
2018-05-15T09:10:06.161Z,22.94
2018-05-15T09:11:05.946Z,22.88
2018-05-15T09:12:06.399Z,22.94
2018-05-15T09:13:06.690Z,22.81
2018-05-15T09:14:06.095Z,22.69
2018-05-15T09:15:06.508Z,23.00
2018-05-15T09:16:11.466Z,22.81
2018-05-15T09:17:06.198Z,22.69
2018-05-15T09:18:06.815Z,22.50
2018-05-15T09:19:06.347Z,22.12
2018-05-15T09:20:06.249Z,21.94
2018-05-15T09:21:06.188Z,22.00
2018-05-15T09:22:06.582Z,22.00
2018-05-15T09:23:06.668Z,21.81
2018-05-15T09:24:06.545Z,21.75
2018-05-15T09:25:05.859Z,21.81
2018-05-15T09:26:06.178Z,21.75
2018-05-15T09:27:06.506Z,21.56
2018-05-15T09:28:06.188Z,21.69
2018-05-15T09:29:06.345Z,21.62
2018-05-15T09:30:05.834Z,21.69
2018-05-15T09:31:06.092Z,22.00
2018-05-15T09:32:06.346Z,22.06
2018-05-15T09:33:11.312Z,22.38
2018-05-15T09:34:05.862Z,22.31
2018-05-15T09:35:06.892Z,22.19
2018-05-15T09:36:06.184Z,22.31
2018-05-15T09:37:06.300Z,22.44
2018-05-15T09:38:06.182Z,22.38
2018-05-15T09:39:06.473Z,22.62
2018-05-15T09:40:06.266Z,22.62
2018-05-15T09:41:06.271Z,22.56
2018-05-15T09:42:06.426Z,22.44
2018-05-15T09:43:05.788Z,22.31
2018-05-15T09:44:05.776Z,21.94
2018-05-15T09:45:10.559Z,21.75
2018-05-15T09:46:06.297Z,21.69
2018-05-15T09:47:05.954Z,21.69
2018-05-15T09:48:10.947Z,21.81
2018-05-15T09:49:06.435Z,21.75
2018-05-15T09:50:06.669Z,21.69
2018-05-15T09:51:06.215Z,21.56
2018-05-15T09:52:06.506Z,21.62
2018-05-15T09:53:11.429Z,21.69
2018-05-15T09:54:06.394Z,21.81
2018-05-15T09:55:06.589Z,22.31
2018-05-15T09:56:06.301Z,22.56
2018-05-15T09:57:06.105Z,22.62
2018-05-15T09:58:11.035Z,22.50
2018-05-15T09:59:06.305Z,22.38
2018-05-15T10:00:06.418Z,22.44
2018-05-15T10:01:11.357Z,22.44
2018-05-15T10:02:06.457Z,22.38
2018-05-15T10:03:06.021Z,22.44
2018-05-15T10:04:06.884Z,22.62
2018-05-15T10:05:06.333Z,22.56
2018-05-15T10:06:05.684Z,22.44
2018-05-15T10:07:06.261Z,22.56
2018-05-15T10:08:11.322Z,22.69
2018-05-15T10:09:06.057Z,22.50
2018-05-15T10:10:11.267Z,22.44
2018-05-15T10:11:07.089Z,22.50
2018-05-15T10:12:05.961Z,22.56
2018-05-15T10:13:12.678Z,22.69
2018-05-15T10:14:06.829Z,22.81
2018-05-15T10:15:06.354Z,22.81
2018-05-15T10:16:05.872Z,22.81
2018-05-15T10:17:16.039Z,22.75
2018-05-15T10:18:05.860Z,22.75
2018-05-15T10:19:06.089Z,22.75
2018-05-15T10:20:06.060Z,22.88
2018-05-15T10:21:06.190Z,23.00
2018-05-15T10:22:06.264Z,23.12
2018-05-15T10:23:06.050Z,23.12
2018-05-15T10:24:05.942Z,23.19
2018-05-15T10:25:06.297Z,23.00
2018-05-15T10:26:05.859Z,22.88
2018-05-15T10:27:11.208Z,22.62
2018-05-15T10:28:05.775Z,22.50
2018-05-15T10:29:05.706Z,22.31
2018-05-15T10:30:11.500Z,22.19
2018-05-15T10:31:05.888Z,22.06
2018-05-15T10:32:06.186Z,21.94
2018-05-15T10:33:10.794Z,21.94
2018-05-15T10:34:06.591Z,21.94
2018-05-15T10:35:06.117Z,22.06
2018-05-15T10:36:06.518Z,22.31
2018-05-15T10:37:06.335Z,22.38
2018-05-15T10:38:05.698Z,22.56
2018-05-15T10:39:06.308Z,22.75
2018-05-15T10:40:05.942Z,22.81
2018-05-15T10:41:06.655Z,22.94
2018-05-15T10:42:06.180Z,22.94
2018-05-15T10:43:06.341Z,22.94
2018-05-15T10:44:06.379Z,22.88
2018-05-15T10:45:06.501Z,22.94
2018-05-15T10:46:06.073Z,22.94
2018-05-15T10:47:05.727Z,22.69
2018-05-15T10:48:07.144Z,22.56
2018-05-15T10:49:11.512Z,22.62
2018-05-15T10:50:06.163Z,22.69
2018-05-15T10:51:06.009Z,22.88
2018-05-15T10:52:11.520Z,22.81
2018-05-15T10:53:06.400Z,22.75
2018-05-15T10:54:06.509Z,22.88
2018-05-15T10:55:06.568Z,22.88
2018-05-15T10:56:06.418Z,22.88
2018-05-15T10:57:05.862Z,22.75
2018-05-15T10:58:05.705Z,22.69
2018-05-15T10:59:05.797Z,22.88
2018-05-15T11:00:05.958Z,23.06
2018-05-15T11:01:06.165Z,23.00
2018-05-15T11:02:06.105Z,23.00
2018-05-15T11:03:06.555Z,22.94
2018-05-15T11:04:05.783Z,22.94
2018-05-15T11:05:05.792Z,23.12
2018-05-15T11:06:06.109Z,23.19
2018-05-15T11:07:06.291Z,23.19
2018-05-15T11:08:06.054Z,23.25
2018-05-15T11:09:06.184Z,23.19
2018-05-15T11:10:06.145Z,23.12
2018-05-15T11:11:06.524Z,23.19
2018-05-15T11:12:06.565Z,23.12
2018-05-15T11:13:06.179Z,22.94
2018-05-15T11:14:06.443Z,22.94
2018-05-15T11:15:06.576Z,22.81
2018-05-15T11:16:06.310Z,22.81
2018-05-15T11:17:06.022Z,22.81
2018-05-15T11:18:06.345Z,22.81
2018-05-15T11:19:06.104Z,22.75
2018-05-15T11:20:05.941Z,22.62
2018-05-15T11:21:05.622Z,22.69
2018-05-15T11:22:06.339Z,22.94
2018-05-15T11:23:06.737Z,22.88
2018-05-15T11:24:06.334Z,22.88
2018-05-15T11:25:06.239Z,22.88
2018-05-15T11:26:05.858Z,22.94
2018-05-15T11:27:06.666Z,23.00
2018-05-15T11:28:06.055Z,23.00
2018-05-15T11:29:06.835Z,23.00
2018-05-15T11:30:06.116Z,23.12
2018-05-15T11:31:06.267Z,23.19
2018-05-15T11:32:06.437Z,23.00
2018-05-15T11:33:06.339Z,22.94
2018-05-15T11:34:06.822Z,22.94
2018-05-15T11:35:06.326Z,23.06
2018-05-15T11:36:06.028Z,23.06
2018-05-15T11:37:06.827Z,23.06
2018-05-15T11:38:05.700Z,23.06
2018-05-15T11:39:05.544Z,22.94
2018-05-15T11:40:05.720Z,23.06
2018-05-15T11:41:05.555Z,23.12
2018-05-15T11:42:05.827Z,23.12
2018-05-15T11:43:06.424Z,23.19
2018-05-15T11:44:05.936Z,23.19
2018-05-15T11:45:11.426Z,23.25
2018-05-15T11:46:06.399Z,23.12
2018-05-15T11:47:06.415Z,23.12
2018-05-15T11:48:06.607Z,23.12
2018-05-15T11:49:07.567Z,23.19
2018-05-15T11:50:07.236Z,23.12
2018-05-15T11:51:06.825Z,23.00
2018-05-15T11:52:06.756Z,23.00
2018-05-15T11:53:12.203Z,22.50
2018-05-15T11:54:05.616Z,22.06
2018-05-15T11:55:06.182Z,21.69
2018-05-15T11:56:05.999Z,21.81
2018-05-15T11:57:10.887Z,21.50
2018-05-15T11:58:06.228Z,21.44
2018-05-15T11:59:05.929Z,21.62
2018-05-15T12:00:11.234Z,21.94
2018-05-15T12:01:06.515Z,22.25
2018-05-15T12:02:06.036Z,22.31
2018-05-15T12:03:05.778Z,22.44
2018-05-15T12:04:05.802Z,22.69
2018-05-15T12:05:05.957Z,22.75
2018-05-15T12:06:06.553Z,22.81
2018-05-15T12:07:06.132Z,22.88
2018-05-15T12:08:06.665Z,22.81
2018-05-15T12:09:06.102Z,23.06
2018-05-15T12:10:05.795Z,23.12
2018-05-15T12:11:05.884Z,23.19
2018-05-15T12:12:06.403Z,23.12
2018-05-15T12:13:06.493Z,23.19
2018-05-15T12:14:06.276Z,23.19
2018-05-15T12:15:06.247Z,23.00
2018-05-15T12:16:05.817Z,22.94
2018-05-15T12:17:06.114Z,22.81
2018-05-15T12:18:06.602Z,22.81
2018-05-15T12:19:05.614Z,22.69
2018-05-15T12:20:05.553Z,22.88
2018-05-15T12:21:11.588Z,22.88
2018-05-15T12:22:06.283Z,23.00
2018-05-15T12:23:05.856Z,22.94
2018-05-15T12:24:06.514Z,23.06
2018-05-15T12:25:06.273Z,22.94
2018-05-15T12:26:06.118Z,23.12
2018-05-15T12:27:07.336Z,23.19
2018-05-15T12:28:07.323Z,23.44
2018-05-15T12:29:05.964Z,23.56
2018-05-15T12:30:05.876Z,23.50
2018-05-15T12:31:06.840Z,23.56
2018-05-15T12:32:07.304Z,23.50
2018-05-15T12:33:06.285Z,23.44
2018-05-15T12:34:06.354Z,23.31
2018-05-15T12:35:06.187Z,23.12
2018-05-15T12:36:05.797Z,23.12
2018-05-15T12:37:05.738Z,23.00
2018-05-15T12:38:05.713Z,23.00
2018-05-15T12:39:06.321Z,22.94
2018-05-15T12:40:06.028Z,23.00
2018-05-15T12:41:06.599Z,23.19
2018-05-15T12:42:06.578Z,23.75
2018-05-15T12:43:06.456Z,23.56
2018-05-15T12:44:06.507Z,23.44
2018-05-15T12:45:06.346Z,23.44
2018-05-15T12:46:06.615Z,23.31
2018-05-15T12:47:06.017Z,23.12
2018-05-15T12:48:05.747Z,23.06
2018-05-15T12:49:05.948Z,22.94
2018-05-15T12:50:06.994Z,22.94
2018-05-15T12:51:06.423Z,22.81
2018-05-15T12:52:06.244Z,22.75